Time;durP1;ratioP1;P1;durP2;ratioP2;P2;SDS_P1;SDS_P2;PMS_P1;PMS_P2;Temp;Humidity;BMP_temperature;BMP_pressure;BME280_temperature;BME280_humidity;BME280_pressure;Samples;Min_cycle;Max_cycle;Signal;HPM_P1;HPM_P2
2023/01/26 00:01:47;;;;;;;24.48;7.38;;;0.00;99.90;;;;;;4187105;28;20041;-84
2023/01/26 00:03:48;;;;;;;23.08;8.10;;;0.10;99.90;;;;;;4170397;28;20037;-84
2023/01/26 00:05:50;;;;;;;25.48;8.65;;;0.40;99.90;;;;;;4170649;28;20050;-84
2023/01/26 00:07:51;;;;;;;23.88;8.55;;;0.10;99.90;;;;;;4171655;28;20033;-84
2023/01/26 00:09:53;;;;;;;24.70;7.93;;;0.00;99.90;;;;;;4171360;28;20048;-84
2023/01/26 00:11:55;;;;;;;23.05;6.40;;;0.10;99.90;;;;;;4171774;28;20113;-85
2023/01/26 00:13:59;;;;;;;23.08;8.88;;;1.70;99.90;;;;;;4176985;28;20048;-83
2023/01/26 00:16:01;;;;;;;23.70;9.48;;;0.10;99.90;;;;;;4170290;28;20046;-84
2023/01/26 00:18:05;;;;;;;24.90;7.93;;;1.70;99.90;;;;;;4186624;28;20433;-84
2023/01/26 00:20:10;;;;;;;20.17;7.47;;;0.00;99.90;;;;;;4204401;28;20445;-83
2023/01/26 00:22:11;;;;;;;27.25;8.55;;;0.10;99.90;;;;;;4188745;28;20041;-84
2023/01/26 00:24:12;;;;;;;23.90;8.07;;;0.10;99.90;;;;;;4187350;28;20048;-84
2023/01/26 00:26:19;;;;;;;21.52;7.60;;;-0.10;99.90;;;;;;4188247;28;20397;-84
2023/01/26 00:28:22;;;;;;;23.80;8.73;;;0.10;99.90;;;;;;4170601;28;20442;-84
2023/01/26 00:30:23;;;;;;;26.08;8.27;;;-0.60;99.90;;;;;;4187460;28;20108;-84
2023/01/26 00:32:24;;;;;;;22.67;7.85;;;1.60;99.90;;;;;;4188504;28;20052;-84
2023/01/26 00:34:24;;;;;;;25.13;7.75;;;0.00;99.90;;;;;;4186788;28;20087;-85
2023/01/26 00:36:27;;;;;;;21.85;8.32;;;1.00;99.90;;;;;;4154797;28;20141;-84
2023/01/26 00:38:29;;;;;;;23.73;7.70;;;0.10;99.90;;;;;;4170451;28;20553;-84
2023/01/26 00:40:31;;;;;;;27.17;8.32;;;0.10;99.90;;;;;;4171788;28;20147;-84
2023/01/26 00:42:33;;;;;;;21.05;7.72;;;0.00;99.90;;;;;;4172619;28;20037;-84
2023/01/26 00:44:37;;;;;;;23.75;7.75;;;0.20;99.90;;;;;;4170984;28;20552;-84
2023/01/26 00:46:39;;;;;;;21.42;7.38;;;0.10;99.90;;;;;;4154847;28;20045;-84
2023/01/26 00:48:42;;;;;;;24.77;8.40;;;-0.40;99.90;;;;;;4171005;28;20056;-84
2023/01/26 00:50:43;;;;;;;24.25;8.85;;;1.10;99.90;;;;;;4172642;28;20080;-84
2023/01/26 00:52:44;;;;;;;24.67;8.25;;;0.40;99.90;;;;;;4181998;28;20508;-84
2023/01/26 00:54:46;;;;;;;19.17;7.22;;;1.70;99.90;;;;;;4187825;28;20045;-84
2023/01/26 00:56:49;;;;;;;25.58;8.63;;;0.10;99.90;;;;;;4187144;28;20052;-85
2023/01/26 00:58:50;;;;;;;27.23;8.73;;;0.10;99.90;;;;;;4171244;28;20111;-84
2023/01/26 01:00:52;;;;;;;24.73;8.23;;;0.20;99.90;;;;;;4188676;28;20041;-85
2023/01/26 01:02:56;;;;;;;30.23;9.23;;;1.10;99.90;;;;;;4187482;28;20075;-84
2023/01/26 01:04:57;;;;;;;30.23;8.63;;;0.80;99.90;;;;;;4188603;28;20053;-84
2023/01/26 01:06:59;;;;;;;21.27;7.35;;;0.10;99.90;;;;;;4170893;28;20564;-85
2023/01/26 01:09:00;;;;;;;24.77;8.45;;;1.60;99.90;;;;;;4186961;28;20464;-84
2023/01/26 01:11:10;;;;;;;26.42;8.35;;;1.00;99.90;;;;;;4177713;28;20045;-84
2023/01/26 01:13:16;;;;;;;25.27;8.10;;;0.40;99.90;;;;;;4186197;28;20189;-85
2023/01/26 01:15:18;;;;;;;23.55;6.85;;;1.60;99.90;;;;;;4186259;28;20577;-84
2023/01/26 01:17:19;;;;;;;22.90;7.70;;;0.20;99.90;;;;;;4187315;28;20076;-84
2023/01/26 01:19:26;;;;;;;27.55;8.77;;;1.50;99.90;;;;;;4185893;28;20041;-84
2023/01/26 01:21:28;;;;;;;20.83;6.97;;;0.20;99.90;;;;;;4187299;28;20516;-85
2023/01/26 01:23:29;;;;;;;26.73;9.55;;;0.10;99.90;;;;;;4169807;28;20052;-84
2023/01/26 01:25:34;;;;;;;22.85;6.88;;;2.30;99.90;;;;;;4187301;28;20040;-84
2023/01/26 01:27:37;;;;;;;24.58;8.63;;;0.10;99.90;;;;;;4187789;28;20079;-84
2023/01/26 01:29:37;;;;;;;26.90;8.63;;;0.10;99.90;;;;;;4186270;28;20100;-84
2023/01/26 01:31:40;;;;;;;28.02;8.65;;;-0.20;99.90;;;;;;4188185;28;20045;-84
2023/01/26 01:33:46;;;;;;;21.20;8.10;;;0.20;99.90;;;;;;4187449;28;20060;-84
2023/01/26 01:36:00;;;;;;;21.73;7.10;;;-1.00;99.90;;;;;;4189146;28;20049;-84
2023/01/26 01:38:02;;;;;;;22.80;6.88;;;0.40;99.90;;;;;;4188400;28;20124;-85
2023/01/26 01:40:05;;;;;;;25.20;8.27;;;0.60;99.90;;;;;;4186632;28;20132;-84
2023/01/26 01:42:07;;;;;;;27.10;8.30;;;0.30;99.90;;;;;;4169517;28;20064;-84
2023/01/26 01:44:11;;;;;;;20.02;7.25;;;0.10;99.90;;;;;;4185992;28;20041;-84
2023/01/26 01:46:13;;;;;;;17.10;7.03;;;0.30;99.90;;;;;;4187203;28;20123;-82
2023/01/26 01:48:23;;;;;;;21.08;6.53;;;2.20;99.90;;;;;;4169327;28;20107;-84
2023/01/26 01:50:25;;;;;;;23.30;8.02;;;0.30;99.90;;;;;;4187105;28;20049;-84
2023/01/26 01:52:30;;;;;;;23.92;8.63;;;0.20;99.90;;;;;;4169002;28;20414;-84
2023/01/26 01:54:43;;;;;;;27.33;7.85;;;0.20;99.90;;;;;;4168344;28;20049;-84
2023/01/26 01:56:49;;;;;;;22.63;6.90;;;0.40;99.90;;;;;;4186200;28;20109;-84
2023/01/26 01:58:54;;;;;;;20.23;7.57;;;1.00;99.90;;;;;;4169483;28;20068;-84
2023/01/26 02:00:57;;;;;;;21.20;6.95;;;0.20;99.90;;;;;;4169120;28;20521;-85
2023/01/26 02:03:10;;;;;;;20.30;7.82;;;0.80;99.90;;;;;;4187066;28;20049;-84
2023/01/26 02:05:33;;;;;;;22.42;7.10;;;2.10;99.90;;;;;;4190573;28;20045;-84
2023/01/26 02:07:36;;;;;;;23.45;8.15;;;1.00;99.90;;;;;;4188168;28;20052;-84
2023/01/26 02:12:02;;;;;;;17.77;6.95;;;0.50;99.90;;;;;;4190186;28;20084;-83
2023/01/26 02:14:07;;;;;;;20.27;6.43;;;0.60;99.90;;;;;;4189754;28;20048;-83
2023/01/26 02:16:08;;;;;;;19.52;7.15;;;0.30;99.90;;;;;;4190004;28;20040;-83
2023/01/26 02:18:10;;;;;;;20.08;7.35;;;0.60;99.90;;;;;;4172052;28;20048;-83
2023/01/26 02:20:27;;;;;;;19.38;6.47;;;0.50;99.90;;;;;;4188846;28;20040;-83
2023/01/26 02:22:46;;;;;;;16.70;5.95;;;0.50;99.90;;;;;;4155488;28;20147;-84
2023/01/26 02:24:47;;;;;;;16.05;5.20;;;0.50;99.90;;;;;;4173308;28;20042;-83
2023/01/26 02:26:49;;;;;;;22.95;6.20;;;1.20;99.90;;;;;;4155978;28;20045;-84
2023/01/26 02:28:50;;;;;;;14.60;5.70;;;0.70;99.90;;;;;;4171284;28;20049;-84
2023/01/26 02:30:55;;;;;;;16.98;6.30;;;0.50;99.90;;;;;;4172378;28;20055;-84
2023/01/26 02:32:56;;;;;;;16.83;6.43;;;1.70;99.90;;;;;;4155167;28;20046;-84
2023/01/26 02:34:57;;;;;;;19.40;5.97;;;1.40;99.90;;;;;;4155018;28;20045;-83
2023/01/26 02:37:00;;;;;;;17.98;6.15;;;1.80;99.90;;;;;;4182122;28;20048;-84
2023/01/26 02:39:03;;;;;;;17.15;5.95;;;1.50;99.90;;;;;;4187436;28;20053;-84
2023/01/26 02:41:10;;;;;;;18.08;5.75;;;-0.90;99.90;;;;;;4188756;28;20045;-84
2023/01/26 02:43:11;;;;;;;16.67;6.82;;;0.50;99.90;;;;;;4188597;28;20045;-84
2023/01/26 02:45:16;;;;;;;19.73;6.93;;;0.60;99.90;;;;;;4189554;28;20102;-84
2023/01/26 02:47:18;;;;;;;18.77;6.28;;;0.50;99.90;;;;;;4186906;28;20084;-84
2023/01/26 02:51:39;;;;;;;22.42;7.53;;;2.20;99.90;;;;;;4189788;28;20045;-84
2023/01/26 02:53:40;;;;;;;16.05;6.50;;;0.50;99.90;;;;;;4188497;28;20395;-83
2023/01/26 02:55:41;;;;;;;24.17;6.93;;;1.80;99.90;;;;;;4187344;28;20064;-84
2023/01/26 02:57:44;;;;;;;24.15;7.55;;;0.70;99.90;;;;;;4188235;28;20059;-84
2023/01/26 02:59:45;;;;;;;22.52;6.93;;;1.90;99.90;;;;;;4188376;28;20125;-83
2023/01/26 03:01:51;;;;;;;22.23;7.95;;;2.40;99.90;;;;;;4188670;28;20413;-84
2023/01/26 03:03:53;;;;;;;22.58;7.85;;;2.30;99.90;;;;;;4188591;28;20037;-84
2023/01/26 03:05:55;;;;;;;24.48;6.95;;;1.40;99.90;;;;;;4186633;28;20055;-84
2023/01/26 03:07:56;;;;;;;23.25;7.78;;;2.30;99.90;;;;;;4188240;28;20466;-84
2023/01/26 03:10:00;;;;;;;19.52;6.68;;;0.70;99.90;;;;;;4188141;28;20124;-84
2023/01/26 03:12:03;;;;;;;21.92;7.80;;;0.60;99.90;;;;;;4169961;28;20053;-83
2023/01/26 03:14:04;;;;;;;21.75;7.70;;;0.70;99.90;;;;;;4170140;28;20053;-84
2023/01/26 03:16:08;;;;;;;23.42;7.45;;;1.20;99.90;;;;;;4170982;28;20132;-84
2023/01/26 03:27:46;;;;;;;19.73;6.43;;;0.60;99.90;;;;;;4175523;28;20525;-84
2023/01/26 03:29:48;;;;;;;19.58;6.85;;;0.90;99.90;;;;;;4171349;28;20402;-84
2023/01/26 03:31:49;;;;;;;26.17;7.82;;;0.70;99.90;;;;;;4170575;28;20107;-83
2023/01/26 03:33:52;;;;;;;20.77;7.88;;;0.80;99.90;;;;;;4169727;28;20053;-83
2023/01/26 03:35:53;;;;;;;23.73;7.55;;;1.50;99.90;;;;;;4171067;28;20045;-84
2023/01/26 03:37:54;;;;;;;24.10;7.40;;;2.40;99.90;;;;;;4179479;28;20056;-82
2023/01/26 03:56:23;;;;;;;21.77;7.30;;;1.00;99.90;;;;;;4188444;28;20061;-82
2023/01/26 03:58:29;;;;;;;49.03;9.00;;;0.90;99.90;;;;;;4186877;28;20037;-83
2023/01/26 04:00:35;;;;;;;24.08;8.25;;;1.00;99.90;;;;;;4186898;28;20052;-82
2023/01/26 04:09:40;;;;;;;26.35;7.63;;;1.00;99.90;;;;;;4187522;28;20057;-82
2023/01/26 04:11:42;;;;;;;25.85;7.80;;;1.00;99.90;;;;;;4186575;28;20041;-82
2023/01/26 04:23:06;;;;;;;25.67;8.55;;;1.10;99.90;;;;;;4179197;28;20057;-82
2023/01/26 04:25:08;;;;;;;27.80;7.35;;;1.10;99.90;;;;;;4186994;28;20041;-82
2023/01/26 04:27:10;;;;;;;27.95;8.32;;;1.20;99.90;;;;;;4185693;28;20037;-82
2023/01/26 04:29:13;;;;;;;29.50;10.77;;;1.20;99.90;;;;;;4186691;28;20041;-82
2023/01/26 04:31:20;;;;;;;29.00;9.07;;;1.20;99.90;;;;;;4185640;28;20052;-82
2023/01/26 04:33:20;;;;;;;26.10;7.80;;;1.20;99.90;;;;;;4187336;28;20045;-82
2023/01/26 04:35:22;;;;;;;29.77;9.07;;;1.20;99.90;;;;;;4185781;28;20115;-83
2023/01/26 04:37:23;;;;;;;31.23;8.38;;;1.20;99.90;;;;;;4186443;28;20045;-82
2023/01/26 04:39:24;;;;;;;29.40;9.02;;;1.20;99.90;;;;;;4186064;28;20457;-82
2023/01/26 04:41:29;;;;;;;32.95;8.95;;;1.30;99.90;;;;;;4185096;28;20088;-82
2023/01/26 04:43:30;;;;;;;35.25;10.02;;;1.30;99.90;;;;;;4185863;28;20049;-82
2023/01/26 04:45:31;;;;;;;35.85;8.95;;;1.30;99.90;;;;;;4185963;28;20097;-82
2023/01/26 04:47:32;;;;;;;33.47;10.20;;;1.40;99.90;;;;;;4185636;28;20041;-82
2023/01/26 04:49:34;;;;;;;30.08;9.60;;;1.80;99.90;;;;;;4185012;28;20049;-82
2023/01/26 04:51:34;;;;;;;36.63;8.63;;;2.70;99.90;;;;;;4185724;28;20045;-82
2023/01/26 04:53:35;;;;;;;29.60;9.55;;;1.40;99.90;;;;;;4167855;28;20192;-82
2023/01/26 04:55:36;;;;;;;41.53;10.25;;;1.70;99.90;;;;;;4185089;28;20064;-82
2023/01/26 04:57:36;;;;;;;40.55;11.68;;;1.50;99.90;;;;;;4184486;28;20060;-82
2023/01/26 04:59:37;;;;;;;45.72;10.88;;;1.50;99.90;;;;;;4167113;28;20505;-82
2023/01/26 05:01:38;;;;;;;36.72;10.05;;;1.70;99.90;;;;;;4183499;28;20138;-82
2023/01/26 05:03:38;;;;;;;40.88;10.10;;;1.50;99.90;;;;;;4184193;28;20040;-82
2023/01/26 05:05:39;;;;;;;42.15;9.70;;;1.60;99.90;;;;;;4184764;28;20049;-82
2023/01/26 05:07:40;;;;;;;34.28;10.50;;;1.70;99.90;;;;;;4183260;28;20119;-82
2023/01/26 05:09:41;;;;;;;42.03;10.18;;;1.70;99.90;;;;;;4166740;28;20049;-87
2023/01/26 05:11:42;;;;;;;45.55;10.60;;;2.60;99.90;;;;;;4183632;28;20397;-82
2023/01/26 05:13:46;;;;;;;36.17;9.93;;;1.80;99.90;;;;;;4184868;28;20040;-82
2023/01/26 05:15:47;;;;;;;43.03;9.15;;;2.90;99.90;;;;;;4161473;28;20038;-82
2023/01/26 05:17:50;;;;;;;34.22;8.90;;;3.10;99.90;;;;;;4182492;28;20056;-82
2023/01/26 05:19:51;;;;;;;44.75;9.73;;;2.80;99.90;;;;;;4149438;28;20046;-82
2023/01/26 05:21:52;;;;;;;50.85;10.50;;;2.90;99.90;;;;;;4166209;28;20053;-82
2023/01/26 05:23:54;;;;;;;38.58;10.02;;;2.00;99.90;;;;;;4167741;28;20055;-82
2023/01/26 05:25:54;;;;;;;35.97;8.63;;;2.00;99.90;;;;;;4167261;28;20045;-82
2023/01/26 05:27:57;;;;;;;33.88;8.82;;;2.20;99.90;;;;;;4165668;28;20474;-82
2023/01/26 05:30:00;;;;;;;52.03;10.75;;;2.10;99.90;;;;;;4166789;28;20037;-83
2023/01/26 05:32:02;;;;;;;45.28;10.00;;;2.90;99.90;;;;;;4167210;28;20083;-82
2023/01/26 05:34:03;;;;;;;44.75;8.95;;;2.20;99.90;;;;;;4171305;28;20044;-82
2023/01/26 05:36:06;;;;;;;35.85;8.55;;;2.90;99.90;;;;;;4183183;28;20430;-82
2023/01/26 05:38:08;;;;;;;32.40;8.07;;;2.30;99.90;;;;;;4181808;28;20482;-82
2023/01/26 05:40:09;;;;;;;46.13;9.38;;;2.80;99.90;;;;;;4182306;28;20080;-82
2023/01/26 05:42:12;;;;;;;35.47;7.93;;;2.40;99.90;;;;;;4181548;28;20048;-82
2023/01/26 05:44:13;;;;;;;35.28;8.05;;;2.40;99.90;;;;;;4182870;28;20052;-83
2023/01/26 05:46:15;;;;;;;34.70;8.10;;;2.40;99.90;;;;;;4181561;28;20442;-83
2023/01/26 05:48:16;;;;;;;26.42;6.63;;;2.40;99.90;;;;;;4181073;28;20048;-82
2023/01/26 05:50:16;;;;;;;38.58;7.55;;;2.50;99.90;;;;;;4181785;28;20053;-82
2023/01/26 05:52:19;;;;;;;45.03;7.57;;;2.50;99.90;;;;;;4184041;28;20053;-82
2023/01/26 05:54:19;;;;;;;32.97;6.40;;;2.60;99.90;;;;;;4180561;28;20519;-82
2023/01/26 05:56:20;;;;;;;39.42;7.13;;;2.50;99.90;;;;;;4165749;28;20053;-83
2023/01/26 05:58:22;;;;;;;28.52;5.68;;;2.80;99.90;;;;;;4165834;28;20176;-82
2023/01/26 06:00:23;;;;;;;24.95;5.50;;;2.60;99.90;;;;;;4167781;28;20049;-82
2023/01/26 06:02:26;;;;;;;38.97;5.38;;;2.60;99.90;;;;;;4180951;28;20075;-82
2023/01/26 06:04:27;;;;;;;23.13;4.85;;;2.60;99.90;;;;;;4165291;28;20052;-82
2023/01/26 06:06:27;;;;;;;27.10;2.97;;;2.70;99.90;;;;;;4164335;28;20045;-82
2023/01/26 06:08:28;;;;;;;28.35;3.25;;;2.80;99.90;;;;;;4165304;28;20130;-82
2023/01/26 06:10:30;;;;;;;30.02;2.65;;;2.80;99.90;;;;;;4164459;28;20049;-82
2023/01/26 06:12:34;;;;;;;34.60;4.85;;;2.90;99.90;;;;;;4165062;28;20116;-82
2023/01/26 06:14:35;;;;;;;33.85;3.60;;;3.00;99.90;;;;;;4164923;28;20057;-82
2023/01/26 06:16:37;;;;;;;26.77;2.63;;;3.00;99.90;;;;;;4164320;28;20060;-82
2023/01/26 06:18:39;;;;;;;24.27;2.80;;;3.00;99.90;;;;;;4166677;28;20564;-82
2023/01/26 06:20:39;;;;;;;25.00;3.40;;;3.10;99.90;;;;;;4181937;28;20037;-82
2023/01/26 06:22:40;;;;;;;34.47;2.60;;;3.10;99.90;;;;;;4181641;28;20045;-82
2023/01/26 06:24:41;;;;;;;31.90;2.67;;;4.10;99.90;;;;;;4180893;28;20498;-82
2023/01/26 06:26:42;;;;;;;37.25;4.35;;;3.10;99.90;;;;;;4181966;28;20041;-82
2023/01/26 06:28:43;;;;;;;36.00;3.10;;;3.20;99.90;;;;;;4180195;28;20056;-82
2023/01/26 06:30:45;;;;;;;30.92;3.67;;;3.50;99.90;;;;;;4181722;28;20490;-82
2023/01/26 06:32:46;;;;;;;38.70;4.57;;;3.20;99.90;;;;;;4181739;28;20033;-82
2023/01/26 06:34:47;;;;;;;39.08;4.60;;;3.10;99.90;;;;;;4163434;28;20049;-82
2023/01/26 06:36:47;;;;;;;34.50;4.38;;;3.20;99.90;;;;;;4179600;28;20048;-82
2023/01/26 06:38:51;;;;;;;34.72;3.42;;;3.20;99.90;;;;;;4181234;28;20072;-82
2023/01/26 06:40:52;;;;;;;29.42;4.88;;;3.20;99.90;;;;;;4180532;28;20053;-81
2023/01/26 06:42:53;;;;;;;32.72;3.22;;;4.00;99.90;;;;;;4163575;28;20140;-82
2023/01/26 06:44:57;;;;;;;41.13;4.18;;;3.10;99.90;;;;;;4164088;28;20053;-82
2023/01/26 06:46:58;;;;;;;25.05;3.50;;;3.10;99.90;;;;;;4165370;28;20048;-82
2023/01/26 06:49:03;;;;;;;34.55;3.03;;;3.10;99.90;;;;;;4163832;28;20117;-81
2023/01/26 06:51:43;;;;;;;21.75;3.03;;;3.00;99.90;;;;;;4165866;28;20106;-82
2023/01/26 06:54:04;;;;;;;33.72;4.43;;;3.00;99.90;;;;;;4167091;28;20056;-82
2023/01/26 06:56:05;;;;;;;17.20;2.20;;;3.00;99.90;;;;;;4182046;28;20745;-82
2023/01/26 06:58:06;;;;;;;28.95;3.55;;;3.00;99.90;;;;;;4183324;28;20056;-82
2023/01/26 07:00:08;;;;;;;19.58;2.28;;;2.90;99.90;;;;;;4183568;28;20045;-81
2023/01/26 07:02:17;;;;;;;32.05;3.08;;;2.90;99.90;;;;;;4183447;28;20060;-82
2023/01/26 07:04:19;;;;;;;32.85;4.70;;;2.90;99.90;;;;;;4182808;28;20460;-82
2023/01/26 07:06:20;;;;;;;29.00;3.92;;;3.50;99.90;;;;;;4184491;28;20040;-82
2023/01/26 07:08:21;;;;;;;27.50;3.75;;;2.80;99.90;;;;;;4166724;28;20064;-82
2023/01/26 07:10:22;;;;;;;29.02;2.75;;;3.00;99.90;;;;;;4183034;28;20123;-82
2023/01/26 07:12:23;;;;;;;35.03;4.78;;;2.80;99.90;;;;;;4182815;28;20112;-82
2023/01/26 07:14:24;;;;;;;22.10;3.17;;;2.80;99.90;;;;;;4183408;28;20494;-82
2023/01/26 07:16:25;;;;;;;27.23;3.70;;;2.80;99.90;;;;;;4183849;28;20473;-82
2023/01/26 07:18:25;;;;;;;25.35;3.25;;;2.80;99.90;;;;;;4184562;28;20490;-82
2023/01/26 07:20:28;;;;;;;25.50;3.00;;;3.40;99.90;;;;;;4184359;28;20555;-83
2023/01/26 07:22:28;;;;;;;26.15;3.78;;;3.50;99.90;;;;;;4184095;28;20144;-82
2023/01/26 07:24:29;;;;;;;33.40;5.55;;;3.10;99.90;;;;;;4182733;28;20045;-82
2023/01/26 07:26:31;;;;;;;24.88;3.70;;;2.70;99.90;;;;;;4184040;28;20048;-82
2023/01/26 07:28:33;;;;;;;15.05;3.08;;;2.70;99.90;;;;;;4182458;28;20048;-82
2023/01/26 07:30:33;;;;;;;29.77;3.05;;;2.70;99.90;;;;;;4182609;28;20052;-82
2023/01/26 07:32:36;;;;;;;25.73;3.70;;;3.40;99.90;;;;;;4184199;28;20052;-82
2023/01/26 07:34:37;;;;;;;31.05;3.35;;;3.80;99.90;;;;;;4184089;28;20047;-82
2023/01/26 07:36:37;;;;;;;23.27;3.03;;;3.80;99.90;;;;;;4183041;28;20537;-82
2023/01/26 07:38:38;;;;;;;36.95;3.33;;;2.80;99.90;;;;;;4167165;28;20037;-82
2023/01/26 07:40:39;;;;;;;36.35;5.03;;;2.80;99.90;;;;;;4165839;28;20053;-82
2023/01/26 07:42:40;;;;;;;43.47;3.55;;;2.80;99.90;;;;;;4149932;28;20050;-82
2023/01/26 07:44:41;;;;;;;41.92;4.63;;;4.00;99.90;;;;;;4166427;28;20050;-82
2023/01/26 07:46:43;;;;;;;28.63;3.55;;;2.80;99.90;;;;;;4166356;28;20045;-82
2023/01/26 07:48:43;;;;;;;34.58;3.70;;;2.80;99.90;;;;;;4150132;28;20431;-81
2023/01/26 07:50:46;;;;;;;36.22;2.72;;;3.60;99.90;;;;;;4168279;28;20167;-82
2023/01/26 07:52:47;;;;;;;23.13;4.03;;;2.80;99.90;;;;;;4170136;28;20049;-82
2023/01/26 07:54:49;;;;;;;35.05;3.53;;;3.70;99.90;;;;;;4167256;28;20051;-82
2023/01/26 07:56:51;;;;;;;28.50;3.22;;;2.70;99.90;;;;;;4167638;28;20129;-82
2023/01/26 07:58:53;;;;;;;26.58;3.17;;;3.50;99.90;;;;;;4166677;28;20116;-82
2023/01/26 08:00:55;;;;;;;31.17;3.45;;;2.70;99.90;;;;;;4174411;28;20116;-82
2023/01/26 08:02:56;;;;;;;24.30;3.30;;;2.70;99.90;;;;;;4183272;28;20044;-83
2023/01/26 08:04:59;;;;;;;27.23;3.35;;;3.90;99.90;;;;;;4182753;28;20045;-83
2023/01/26 08:06:59;;;;;;;21.60;3.08;;;2.60;99.90;;;;;;4182788;28;20044;-83
2023/01/26 08:09:01;;;;;;;32.50;3.55;;;2.60;99.90;;;;;;4166374;28;20461;-83
2023/01/26 08:11:02;;;;;;;41.83;3.95;;;2.50;99.90;;;;;;4183124;28;20063;-82
2023/01/26 08:13:03;;;;;;;27.90;4.22;;;2.60;99.90;;;;;;4182870;28;20099;-82
2023/01/26 08:15:04;;;;;;;25.40;4.30;;;2.50;99.90;;;;;;4165453;28;20095;-82
2023/01/26 08:17:04;;;;;;;30.42;3.42;;;2.60;99.90;;;;;;4183615;28;20045;-82
2023/01/26 08:19:06;;;;;;;24.88;3.20;;;2.50;99.90;;;;;;4184084;28;20084;-82
2023/01/26 08:21:07;;;;;;;27.42;4.93;;;2.50;99.90;;;;;;4166754;28;20096;-81
2023/01/26 08:23:09;;;;;;;29.52;3.58;;;2.50;99.90;;;;;;4184104;28;20048;-81
2023/01/26 08:25:10;;;;;;;26.25;3.10;;;2.50;99.90;;;;;;4183083;28;20382;-81
2023/01/26 08:27:11;;;;;;;37.10;3.90;;;2.60;99.90;;;;;;4183418;28;20123;-81
2023/01/26 08:29:11;;;;;;;31.38;3.72;;;2.60;99.90;;;;;;4183414;28;20067;-82
2023/01/26 08:31:19;;;;;;;24.70;3.78;;;2.60;99.90;;;;;;4182991;28;20052;-81
2023/01/26 08:33:19;;;;;;;26.33;3.58;;;2.60;99.90;;;;;;4181867;28;20045;-81
2023/01/26 08:35:21;;;;;;;20.48;2.92;;;2.80;99.90;;;;;;4182478;28;20052;-81
2023/01/26 08:37:22;;;;;;;32.42;4.53;;;3.90;99.90;;;;;;4165345;28;20128;-81
2023/01/26 08:39:23;;;;;;;24.98;4.30;;;3.80;99.90;;;;;;4181785;28;20041;-82
2023/01/26 08:41:25;;;;;;;25.42;5.20;;;3.20;99.90;;;;;;4182824;28;20120;-82
2023/01/26 08:43:28;;;;;;;22.40;3.38;;;3.00;99.90;;;;;;4180949;28;20139;-82
2023/01/26 08:45:29;;;;;;;33.03;4.75;;;3.10;99.90;;;;;;4182609;28;20040;-81
2023/01/26 08:47:31;;;;;;;23.30;3.17;;;3.20;99.90;;;;;;4165111;28;20529;-81
2023/01/26 08:49:32;;;;;;;29.55;3.67;;;3.40;99.90;;;;;;4181057;28;20123;-82
2023/01/26 08:51:33;;;;;;;31.73;4.10;;;3.70;99.90;;;;;;4162881;28;20111;-83
2023/01/26 08:53:36;;;;;;;20.25;3.22;;;5.10;99.90;;;;;;4181297;28;20041;-83
2023/01/26 08:55:36;;;;;;;24.98;3.70;;;4.20;99.90;;;;;;4180108;28;20057;-83
2023/01/26 08:57:37;;;;;;;25.23;3.78;;;5.60;99.90;;;;;;4179537;28;20491;-83
2023/01/26 08:59:38;;;;;;;23.63;2.97;;;4.40;99.90;;;;;;4180748;28;20044;-83
2023/01/26 09:01:39;;;;;;;38.35;4.38;;;5.90;99.90;;;;;;4181029;28;20045;-83
2023/01/26 09:03:41;;;;;;;37.25;6.03;;;5.60;99.90;;;;;;4181272;28;20433;-84
2023/01/26 09:05:42;;;;;;;33.95;4.32;;;6.10;99.90;;;;;;4181866;28;20090;-84
2023/01/26 09:07:43;;;;;;;18.35;2.35;;;5.20;99.90;;;;;;4179237;28;20053;-82
2023/01/26 09:09:44;;;;;;;23.38;3.42;;;5.50;99.90;;;;;;4155928;28;20045;-83
2023/01/26 09:11:44;;;;;;;24.38;5.88;;;6.60;99.90;;;;;;4179345;28;20115;-83
2023/01/26 09:13:55;;;;;;;17.45;2.50;;;6.10;99.90;;;;;;4172140;28;20053;-83
2023/01/26 09:15:56;;;;;;;22.15;3.22;;;6.50;99.90;;;;;;4172463;28;20171;-83
2023/01/26 09:17:56;;;;;;;26.35;2.90;;;7.10;99.90;;;;;;4159599;28;20054;-83
2023/01/26 09:19:57;;;;;;;16.23;2.95;;;7.60;99.90;;;;;;4185513;28;20120;-83
2023/01/26 09:21:58;;;;;;;23.35;2.50;;;8.50;99.90;;;;;;4180447;28;20132;-83
2023/01/26 09:23:58;;;;;;;21.17;3.25;;;8.50;99.90;;;;;;4179822;28;20560;-83
2023/01/26 09:25:59;;;;;;;15.52;3.83;;;8.50;99.90;;;;;;4180906;28;20102;-83
2023/01/26 09:28:01;;;;;;;11.55;1.83;;;8.80;99.90;;;;;;4174265;28;20045;-83
2023/01/26 09:30:04;;;;;;;17.85;2.42;;;9.30;99.90;;;;;;4152012;28;20065;-81
2023/01/26 09:32:05;;;;;;;16.88;2.92;;;9.10;99.90;;;;;;4176643;28;20044;-82
2023/01/26 09:34:06;;;;;;;11.18;2.15;;;9.30;99.90;;;;;;4180835;28;20045;-83
2023/01/26 09:36:09;;;;;;;17.88;2.28;;;9.40;99.90;;;;;;4178035;28;20563;-83
2023/01/26 09:38:09;;;;;;;23.55;4.75;;;9.30;99.90;;;;;;4171957;28;20533;-83
2023/01/26 09:40:18;;;;;;;18.95;3.17;;;9.30;99.90;;;;;;4179557;28;20079;-83
2023/01/26 09:42:37;;;;;;;12.15;2.75;;;9.70;99.90;;;;;;4179041;28;20482;-83
2023/01/26 09:44:56;;;;;;;;;;;9.90;99.90;;;;;;4163208;28;20132;-83
2023/01/26 09:47:06;;;;;;;;;;;10.20;99.90;;;;;;4163269;28;19921;-83
2023/01/26 09:49:15;;;;;;;14.23;2.40;;;10.10;99.90;;;;;;4163034;28;19967;-83
2023/01/26 09:51:23;;;;;;;21.23;3.92;;;9.60;99.90;;;;;;4179288;28;20521;-84
2023/01/26 09:53:37;;;;;;;13.50;2.83;;;9.30;99.90;;;;;;4163367;28;20049;-83
2023/01/26 09:55:40;;;;;;;15.52;1.88;;;8.50;99.90;;;;;;4163243;28;20103;-83
2023/01/26 09:57:56;;;;;;;19.02;3.47;;;8.20;99.90;;;;;;4163184;28;20506;-83
2023/01/26 10:00:16;;;;;;;16.75;2.78;;;8.20;99.90;;;;;;4179140;28;20079;-83
2023/01/26 10:02:17;;;;;;;19.52;3.35;;;8.30;99.90;;;;;;4180529;28;20053;-83
2023/01/26 10:04:32;;;;;;;16.58;2.33;;;9.00;99.90;;;;;;4180957;28;20048;-83
2023/01/26 10:06:35;;;;;;;25.48;3.97;;;8.80;99.90;;;;;;4180725;28;20084;-84
2023/01/26 10:08:36;;;;;;;16.95;2.55;;;9.60;99.90;;;;;;4171354;28;20131;-83
2023/01/26 10:10:43;;;;;;;14.00;2.70;;;9.80;99.90;;;;;;4196063;28;20044;-83
2023/01/26 10:12:46;;;;;;;12.02;2.75;;;9.80;99.90;;;;;;4181056;28;20040;-83
2023/01/26 10:15:02;;;;;;;16.15;1.98;;;9.70;99.90;;;;;;4180993;28;20062;-83
2023/01/26 10:17:05;;;;;;;17.17;2.28;;;9.70;99.90;;;;;;4181415;28;20045;-83
2023/01/26 10:19:33;;;;;;;18.08;2.72;;;9.90;99.90;;;;;;4181251;28;20116;-83
2023/01/26 10:21:39;;;;;;;18.13;2.25;;;10.00;99.90;;;;;;4180893;28;20040;-83
2023/01/26 10:23:46;;;;;;;13.23;1.80;;;10.20;99.90;;;;;;4181466;28;20049;-83
2023/01/26 10:25:50;;;;;;;10.88;2.28;;;10.40;99.90;;;;;;4189376;28;20117;-83
2023/01/26 10:27:51;;;;;;;18.55;2.72;;;10.40;99.90;;;;;;4183241;28;20049;-83
2023/01/26 10:29:52;;;;;;;14.25;2.90;;;10.40;99.90;;;;;;4182990;28;20159;-83
2023/01/26 10:31:54;;;;;;;14.48;3.03;;;10.40;99.90;;;;;;4183094;28;20044;-83
2023/01/26 10:34:11;;;;;;;19.80;3.10;;;10.20;99.90;;;;;;4183534;28;20120;-83
2023/01/26 10:36:13;;;;;;;16.02;2.15;;;10.00;99.90;;;;;;4183182;28;20052;-83
2023/01/26 10:38:26;;;;;;;23.33;4.05;;;10.70;99.90;;;;;;4183002;28;20567;-84
2023/01/26 10:40:27;;;;;;;15.48;2.10;;;10.00;99.90;;;;;;4183112;28;20045;-84
2023/01/26 10:42:30;;;;;;;16.85;3.00;;;10.20;99.90;;;;;;4183199;28;20519;-83
2023/01/26 10:44:34;;;;;;;19.17;3.13;;;10.20;99.90;;;;;;4182949;28;20168;-83
2023/01/26 10:46:36;;;;;;;14.27;3.08;;;10.40;99.90;;;;;;4178937;28;20064;-84
2023/01/26 10:48:37;;;;;;;21.30;2.42;;;10.50;99.90;;;;;;4183954;28;20075;-83
2023/01/26 10:50:38;;;;;;;14.93;2.63;;;10.70;99.90;;;;;;4184168;28;20428;-83
2023/01/26 10:52:59;;;;;;;13.07;1.92;;;10.70;99.90;;;;;;4182408;28;20052;-84
2023/01/26 10:55:19;;;;;;;11.70;1.45;;;10.60;99.90;;;;;;4181874;28;20041;-83
2023/01/26 10:57:27;;;;;;;14.93;2.38;;;10.80;99.90;;;;;;4179703;28;20163;-83
2023/01/26 10:59:36;;;;;;;11.20;2.55;;;10.10;99.90;;;;;;4181662;28;20508;-83
2023/01/26 11:02:14;;;;;;;12.95;1.30;;;10.00;99.90;;;;;;4168915;28;20064;-84
2023/01/26 11:04:15;;;;;;;15.27;2.35;;;9.80;99.90;;;;;;4147378;28;20038;-85
2023/01/26 11:06:17;;;;;;;12.75;2.13;;;9.70;99.90;;;;;;4155495;28;20041;-85
2023/01/26 11:08:35;;;;;;;18.10;2.05;;;9.70;99.90;;;;;;4183101;28;20056;-85
2023/01/26 11:10:49;;;;;;;20.55;2.17;;;10.00;99.90;;;;;;4160477;28;20037;-83
2023/01/26 11:13:05;;;;;;;14.43;1.60;;;10.30;99.90;;;;;;4168264;28;20060;-85
2023/01/26 11:15:18;;;;;;;18.27;2.60;;;10.70;99.90;;;;;;4177074;28;20056;-84
2023/01/26 11:17:28;;;;;;;13.57;1.52;;;11.10;99.90;;;;;;4179138;28;20075;-85
2023/01/26 11:19:31;;;;;;;;;;;11.30;99.90;;;;;;4168482;28;20467;-84
2023/01/26 11:21:40;;;;;;;16.13;1.45;;;11.60;99.90;;;;;;4174534;28;20476;-84
2023/01/26 11:23:47;;;;;;;;;;;11.90;99.90;;;;;;4174250;28;20049;-91
2023/01/26 11:26:16;;;;;;;20.30;4.13;;;12.20;99.90;;;;;;4182298;28;19921;-85
2023/01/26 11:28:36;;;;;;;;;;;12.30;99.90;;;;;;4181643;28;20041;-85
2023/01/26 11:31:02;;;;;;;13.40;1.52;;;12.30;99.90;;;;;;4183302;28;20007;-87